Time;durP1;ratioP1;P1;durP2;ratioP2;P2;SDS_P1;SDS_P2;PMS_P1;PMS_P2;Temp;Humidity;BMP_temperature;BMP_pressure;BME280_temperature;BME280_humidity;BME280_pressure;Samples;Min_cycle;Max_cycle;Signal;HPM_P1;HPM_P2
2022/12/11 00:00:10;;;;;;;108.43;25.33;;;;;;;-143.48;95.12;118439.88;5073306;28;20036;-65
2022/12/11 00:02:36;;;;;;;91.32;25.27;;;;;;;-143.48;95.39;118439.88;5073175;28;20028;-64
2022/12/11 00:05:02;;;;;;;87.88;22.98;;;;;;;-143.48;95.71;118439.88;5073406;28;20075;-66
2022/12/11 00:07:27;;;;;;;94.43;24.13;;;;;;;-143.48;95.80;118439.88;5073020;28;20107;-65
2022/12/11 00:09:52;;;;;;;99.80;23.35;;;;;;;-143.48;95.64;118439.88;5072924;28;20020;-65
2022/12/11 00:12:18;;;;;;;98.53;25.52;;;;;;;-143.48;95.18;118439.88;5073110;28;20032;-65
2022/12/11 00:14:43;;;;;;;98.18;25.23;;;;;;;-143.48;94.97;118439.88;5073036;28;20421;-65
2022/12/11 00:17:08;;;;;;;98.93;25.00;;;;;;;-143.48;94.87;118439.88;5072881;28;20032;-64
2022/12/11 00:19:34;;;;;;;92.15;25.27;;;;;;;-143.48;94.61;118439.88;5058525;28;20372;-71
2022/12/11 00:21:59;;;;;;;95.25;24.17;;;;;;;-143.48;95.04;118439.88;5075037;28;20345;-64
2022/12/11 00:24:24;;;;;;;99.20;25.02;;;;;;;-143.48;94.90;118439.88;5072965;28;20032;-66
2022/12/11 00:26:50;;;;;;;99.28;25.20;;;;;;;-143.48;94.75;118439.88;5076250;28;20063;-65
2022/12/11 00:29:15;;;;;;;91.40;25.08;;;;;;;-143.48;94.22;118439.88;5058437;28;20025;-64
2022/12/11 00:31:40;;;;;;;98.50;25.50;;;;;;;-143.48;94.10;118439.88;5058453;28;20031;-64
2022/12/11 00:34:06;;;;;;;90.93;24.90;;;;;;;-143.48;93.73;118439.88;5076108;28;20025;-64
2022/12/11 00:36:31;;;;;;;91.68;24.58;;;;;;;-143.48;93.55;118439.88;5076379;28;20097;-64
2022/12/11 00:38:57;;;;;;;90.03;24.60;;;;;;;-143.48;93.86;118439.88;5076442;28;20031;-64
2022/12/11 00:41:22;;;;;;;83.05;24.55;;;;;;;-143.48;93.30;118439.88;5076335;28;20025;-64
2022/12/11 00:43:48;;;;;;;92.78;26.05;;;;;;;-143.48;93.37;118439.88;5057885;28;20474;-64
2022/12/11 00:46:13;;;;;;;86.80;24.33;;;;;;;-143.48;92.92;118439.88;5076238;28;20085;-65
2022/12/11 00:48:39;;;;;;;89.20;25.27;;;;;;;-143.48;92.82;118439.88;5076086;28;20029;-64
2022/12/11 00:51:05;;;;;;;82.47;24.95;;;;;;;-143.48;92.93;118439.88;5057946;28;20020;-65
2022/12/11 00:53:30;;;;;;;83.25;25.27;;;;;;;-143.48;92.69;118439.88;5075856;28;20442;-64
2022/12/11 00:55:55;;;;;;;80.72;24.20;;;;;;;-143.48;92.54;118439.88;5075780;28;20036;-64
2022/12/11 00:58:21;;;;;;;83.60;24.75;;;;;;;-143.48;92.78;118439.88;5075884;28;20474;-63
2022/12/11 01:00:48;;;;;;;82.47;24.33;;;;;;;-143.48;92.16;118439.88;5075856;28;20387;-65
2022/12/11 01:03:14;;;;;;;78.97;23.77;;;;;;;-143.48;91.96;118439.88;5075893;28;20020;-70
2022/12/11 01:05:40;;;;;;;72.97;23.40;;;;;;;-143.48;92.10;118439.88;5075725;28;20024;-70
2022/12/11 01:08:06;;;;;;;69.75;22.98;;;;;;;-143.48;92.58;118439.88;5075864;28;20039;-70
2022/12/11 01:10:32;;;;;;;70.13;23.52;;;;;;;-143.48;92.37;118439.88;5075728;28;20031;-69
2022/12/11 01:13:03;;;;;;;73.43;24.17;;;;;;;-143.48;91.73;118439.88;5075797;28;20052;-68
2022/12/11 01:15:31;;;;;;;75.07;24.83;;;;;;;-143.48;91.90;118439.88;5075558;28;20151;-68
2022/12/11 01:17:57;;;;;;;74.40;25.75;;;;;;;-143.48;91.73;118439.88;5075537;28;20020;-68
2022/12/11 01:20:24;;;;;;;81.60;25.58;;;;;;;-143.48;92.17;118439.88;5075677;28;20032;-69
2022/12/11 01:22:54;;;;;;;81.30;25.30;;;;;;;-143.48;91.99;118439.88;5075478;28;20025;-66
2022/12/11 01:25:20;;;;;;;84.10;24.65;;;;;;;-143.48;92.03;118439.88;5075331;28;20028;-68
2022/12/11 01:27:46;;;;;;;85.70;25.20;;;;;;;-143.48;92.09;118439.88;5075470;28;20168;-67
2022/12/11 01:30:12;;;;;;;79.38;25.40;;;;;;;-143.48;92.33;118439.88;5075366;28;20056;-68
2022/12/11 01:32:37;;;;;;;78.85;25.25;;;;;;;-143.48;92.18;118439.88;5075568;28;20051;-68
2022/12/11 01:35:05;;;;;;;71.68;25.05;;;;;;;-143.48;91.88;118439.88;5075010;28;20113;-68
2022/12/11 01:37:30;;;;;;;81.40;25.80;;;;;;;-143.48;91.52;118439.88;5075067;28;20383;-68
2022/12/11 01:39:55;;;;;;;75.75;24.58;;;;;;;-143.48;91.67;118439.88;5075173;28;20025;-69
2022/12/11 01:42:21;;;;;;;79.15;24.95;;;;;;;-143.48;92.06;118439.88;5075133;28;20039;-69
2022/12/11 01:44:46;;;;;;;85.88;26.52;;;;;;;-143.48;92.13;118439.88;5075032;28;20032;-69
2022/12/11 01:47:12;;;;;;;79.00;25.63;;;;;;;-143.48;91.66;118439.88;5057046;28;20031;-69
2022/12/11 01:49:39;;;;;;;80.72;25.63;;;;;;;-143.48;91.93;118439.88;5075067;28;20034;-69
2022/12/11 01:52:14;;;;;;;77.65;26.02;;;;;;;-143.48;91.64;118439.88;5074798;28;20074;-68
2022/12/11 01:54:41;;;;;;;76.82;25.90;;;;;;;-143.48;91.66;118439.88;5074772;28;20024;-69
2022/12/11 01:57:08;;;;;;;71.28;24.33;;;;;;;-143.48;91.52;118439.88;5074609;28;20417;-69
2022/12/11 01:59:38;;;;;;;73.10;24.33;;;;;;;-143.48;91.60;118439.88;5074664;28;20043;-68
2022/12/11 02:02:29;;;;;;;78.18;25.50;;;;;;;-143.48;91.27;118439.88;5074645;28;20032;-68
2022/12/11 02:04:55;;;;;;;72.40;23.65;;;;;;;-143.48;90.61;118439.88;5074494;28;20032;-68
2022/12/11 02:07:20;;;;;;;71.60;23.38;;;;;;;-143.48;90.87;118439.88;5074444;28;20078;-68
2022/12/11 02:09:47;;;;;;;72.90;24.67;;;;;;;-143.48;91.14;118439.88;5074466;28;20479;-69
2022/12/11 02:12:55;;;;;;;71.07;23.50;;;;;;;-143.48;90.05;118439.88;5074612;28;20058;-69
2022/12/11 02:15:34;;;;;;;67.55;23.35;;;;;;;-143.48;89.99;118439.88;5056600;28;20028;-68
2022/12/11 02:18:29;;;;;;;69.00;24.30;;;;;;;-143.48;89.78;118439.88;5074755;28;20480;-68
2022/12/11 02:21:22;;;;;;;69.97;24.17;;;;;;;-143.48;90.24;118439.88;5074395;28;20384;-69
2022/12/11 02:24:04;;;;;;;72.47;24.05;;;;;;;-143.48;90.12;118439.88;5073977;28;20028;-68
2022/12/11 02:26:54;;;;;;;73.82;24.70;;;;;;;-143.48;89.70;118439.88;5056494;28;20495;-69
2022/12/11 02:29:28;;;;;;;70.28;25.25;;;;;;;-143.48;89.87;118439.88;5074221;28;20035;-69
2022/12/11 02:32:03;;;;;;;74.68;25.08;;;;;;;-143.48;89.96;118439.88;5074083;28;20086;-68
2022/12/11 02:34:39;;;;;;;73.63;24.58;;;;;;;-143.48;90.67;118439.88;5074063;28;20035;-69
2022/12/11 02:37:12;;;;;;;72.38;24.92;;;;;;;-143.48;90.19;118439.88;5074203;28;20024;-68
2022/12/11 02:39:40;;;;;;;73.60;26.00;;;;;;;-143.48;90.52;118439.88;5074288;28;20027;-70
2022/12/11 02:42:08;;;;;;;67.45;24.63;;;;;;;-143.48;90.38;118439.88;5074009;28;20025;-69
2022/12/11 02:44:34;;;;;;;74.10;25.10;;;;;;;-143.48;90.80;118439.88;5073949;28;20025;-68
2022/12/11 02:47:03;;;;;;;63.75;24.33;;;;;;;-143.48;90.58;118439.88;5073717;28;20047;-69
2022/12/11 02:49:31;;;;;;;62.80;24.13;;;;;;;-143.48;89.67;118439.88;5073461;28;20024;-69
2022/12/11 02:51:59;;;;;;;56.08;22.88;;;;;;;-143.48;89.45;118439.88;5074157;28;20440;-68
2022/12/11 02:54:30;;;;;;;62.95;23.63;;;;;;;-143.48;90.17;118439.88;5073861;28;20557;-68
2022/12/11 02:57:13;;;;;;;62.97;23.75;;;;;;;-143.48;89.78;118439.88;5073666;28;20115;-68
2022/12/11 02:59:43;;;;;;;57.13;22.25;;;;;;;-143.48;89.79;118439.88;5073973;28;20035;-68
2022/12/11 03:02:11;;;;;;;55.55;21.75;;;;;;;-143.48;89.11;118439.88;5073660;28;20456;-68
2022/12/11 03:04:37;;;;;;;53.00;22.10;;;;;;;-143.48;88.88;118439.88;5073748;28;20486;-68
2022/12/11 03:07:14;;;;;;;54.97;21.77;;;;;;;-143.48;88.71;118439.88;5073599;28;20028;-68
2022/12/11 03:09:42;;;;;;;52.20;21.30;;;;;;;-143.48;88.70;118439.88;5073875;28;20062;-68
2022/12/11 03:12:10;;;;;;;48.20;20.77;;;;;;;-143.48;88.94;118439.88;5072835;28;20020;-68
2022/12/11 03:14:38;;;;;;;43.95;18.73;;;;;;;-143.48;87.78;118439.88;5073894;28;20021;-68
2022/12/11 03:17:18;;;;;;;42.70;19.17;;;;;;;-143.48;87.68;118439.88;5073668;28;20108;-69
2022/12/11 03:19:50;;;;;;;40.47;17.92;;;;;;;-143.48;87.15;118439.88;5073439;28;20059;-68
2022/12/11 03:22:24;;;;;;;39.90;17.55;;;;;;;-143.48;87.00;118439.88;5073424;28;20017;-68
2022/12/11 03:24:53;;;;;;;39.80;17.90;;;;;;;-143.48;86.79;118439.88;5073454;28;20074;-68
2022/12/11 03:27:19;;;;;;;42.45;18.17;;;;;;;-143.48;87.09;118439.88;5073494;28;20067;-69
2022/12/11 03:29:54;;;;;;;43.75;18.92;;;;;;;-143.48;87.44;118439.88;5073555;28;20056;-68
2022/12/11 03:32:24;;;;;;;38.58;18.30;;;;;;;-143.48;87.46;118439.88;5073506;28;20552;-68
2022/12/11 03:34:55;;;;;;;39.97;18.35;;;;;;;-143.48;87.81;118439.88;5073376;28;20135;-68
2022/12/11 03:37:23;;;;;;;37.53;16.80;;;;;;;-143.48;87.49;118439.88;5073512;28;20036;-67
2022/12/11 03:39:53;;;;;;;37.15;16.90;;;;;;;-143.48;87.16;118439.88;5073273;28;20086;-67
2022/12/11 03:42:22;;;;;;;39.92;17.33;;;;;;;-143.48;87.65;118439.88;5073463;28;20078;-68
2022/12/11 03:44:49;;;;;;;39.55;17.40;;;;;;;-143.48;87.99;118439.88;5073180;28;20028;-68
2022/12/11 03:47:19;;;;;;;37.55;16.10;;;;;;;-143.48;87.99;118439.88;5073405;28;20035;-68
2022/12/11 03:49:46;;;;;;;36.60;16.52;;;;;;;-143.48;87.83;118439.88;5073254;28;20027;-68
2022/12/11 03:52:14;;;;;;;37.58;16.52;;;;;;;-143.48;88.38;118439.88;5073008;28;20028;-68
2022/12/11 03:54:42;;;;;;;33.42;16.45;;;;;;;-143.48;88.21;118439.88;5073362;28;20077;-68
2022/12/11 03:57:12;;;;;;;35.83;16.13;;;;;;;-143.48;87.61;118439.88;5073096;28;20060;-68
2022/12/11 03:59:37;;;;;;;36.13;16.73;;;;;;;-143.48;88.01;118439.88;5073294;28;20035;-68
2022/12/11 04:02:09;;;;;;;37.50;16.58;;;;;;;-143.48;87.54;118439.88;5076348;28;20356;-68
2022/12/11 04:04:36;;;;;;;42.45;17.02;;;;;;;-143.48;87.80;118439.88;5072783;28;20036;-67
2022/12/11 04:07:02;;;;;;;41.00;15.82;;;;;;;-143.48;87.73;118439.88;5072849;28;20024;-67
2022/12/11 04:09:27;;;;;;;34.08;15.45;;;;;;;-143.48;87.81;118439.88;5076965;28;20444;-68
2022/12/11 04:11:52;;;;;;;37.20;16.85;;;;;;;-143.48;88.09;118439.88;5076508;28;20426;-68
2022/12/11 04:17:02;;;;;;;38.47;15.20;;;;;;;-143.48;88.01;118439.88;5076715;28;20598;-68
2022/12/11 04:24:51;;;;;;;35.58;15.95;;;;;;;-143.48;87.48;118439.88;5076425;28;20093;-68
2022/12/11 04:27:47;;;;;;;31.63;15.75;;;;;;;-143.48;87.70;118439.88;5076515;28;20032;-68
2022/12/11 04:30:05;;;;;;;32.63;15.27;;;;;;;-143.48;87.38;118439.88;5076309;28;20447;-69
2022/12/11 04:32:30;;;;;;;39.15;16.58;;;;;;;-143.48;87.85;118439.88;5076163;28;20525;-68
2022/12/11 04:34:56;;;;;;;38.22;16.52;;;;;;;-143.48;87.41;118439.88;5076208;28;20071;-69
2022/12/11 04:37:21;;;;;;;36.05;15.75;;;;;;;-143.48;86.79;118439.88;5076309;28;20029;-68
2022/12/11 04:39:46;;;;;;;32.20;16.00;;;;;;;-143.48;86.46;118439.88;5076551;28;20059;-69
2022/12/11 04:42:11;;;;;;;36.10;15.98;;;;;;;-143.48;86.02;118439.88;5076247;28;20417;-68
2022/12/11 04:44:37;;;;;;;38.28;16.80;;;;;;;-143.48;86.29;118439.88;5076000;28;20413;-68
2022/12/11 04:47:02;;;;;;;37.50;16.58;;;;;;;-143.48;86.61;118439.88;5075958;28;20021;-69
2022/12/11 04:49:27;;;;;;;35.38;16.10;;;;;;;-143.48;86.18;118439.88;5075693;28;20020;-68
2022/12/11 04:51:53;;;;;;;35.58;16.60;;;;;;;-143.48;85.95;118439.88;5075962;28;20026;-67
2022/12/11 04:54:18;;;;;;;33.78;15.35;;;;;;;-143.48;85.85;118439.88;5075544;28;20035;-67
2022/12/11 04:56:43;;;;;;;36.35;16.23;;;;;;;-143.48;85.70;118439.88;5057960;28;20032;-69
2022/12/11 04:59:09;;;;;;;33.90;15.25;;;;;;;-143.48;85.91;118439.88;5075911;28;20471;-68
2022/12/11 05:01:34;;;;;;;36.47;16.35;;;;;;;-143.48;85.83;118439.88;5075762;28;20688;-68
2022/12/11 05:03:59;;;;;;;34.72;16.10;;;;;;;-143.48;85.28;118439.88;5075801;28;20464;-68
2022/12/11 05:06:24;;;;;;;33.40;15.63;;;;;;;-143.48;85.44;118439.88;5075863;28;20029;-68
2022/12/11 05:08:50;;;;;;;31.95;15.13;;;;;;;-143.48;85.68;118439.88;5075783;28;20100;-68
2022/12/11 05:11:16;;;;;;;35.33;16.67;;;;;;;-143.48;86.12;118439.88;5075305;28;20029;-67
2022/12/11 05:13:43;;;;;;;33.22;16.40;;;;;;;-143.48;86.10;118439.88;5075600;28;20025;-68
2022/12/11 05:16:10;;;;;;;32.83;16.58;;;;;;;-143.48;86.46;118439.88;5075471;28;20021;-68
2022/12/11 05:18:36;;;;;;;34.90;17.23;;;;;;;-143.48;86.00;118439.88;5075741;28;20364;-68
2022/12/11 05:21:07;;;;;;;37.03;16.77;;;;;;;-143.48;85.77;118439.88;5075639;28;20020;-68
2022/12/11 05:23:33;;;;;;;33.95;16.02;;;;;;;-143.48;85.83;118439.88;5075103;28;20400;-68
2022/12/11 05:26:01;;;;;;;37.15;16.58;;;;;;;-143.48;86.09;118439.88;5075635;28;20345;-68
2022/12/11 05:28:28;;;;;;;35.30;16.45;;;;;;;-143.48;86.97;118439.88;5075565;28;20025;-68
2022/12/11 05:30:59;;;;;;;36.33;16.75;;;;;;;-143.48;86.65;118439.88;5075381;28;20107;-68
2022/12/11 05:33:25;;;;;;;36.97;16.58;;;;;;;-143.48;86.58;118439.88;5075323;28;20556;-68
2022/12/11 05:35:50;;;;;;;34.83;15.45;;;;;;;-143.48;86.52;118439.88;5074949;28;20075;-69
2022/12/11 05:38:16;;;;;;;35.78;17.15;;;;;;;-143.48;87.70;118439.88;5075122;28;20024;-69
2022/12/11 05:40:41;;;;;;;39.63;17.42;;;;;;;-143.48;88.30;118439.88;5075127;28;20059;-69
2022/12/11 05:43:07;;;;;;;37.45;17.33;;;;;;;-143.48;88.59;118439.88;5074896;28;20031;-69
2022/12/11 05:45:32;;;;;;;38.20;17.73;;;;;;;-143.48;87.84;118439.88;5075008;28;20051;-68
2022/12/11 05:47:58;;;;;;;35.35;17.38;;;;;;;-143.48;87.26;118439.88;5074975;28;20099;-68
2022/12/11 05:50:23;;;;;;;37.38;18.02;;;;;;;-143.48;87.82;118439.88;5074596;28;20052;-67
2022/12/11 05:52:48;;;;;;;38.85;17.85;;;;;;;-143.48;88.12;118439.88;5074769;28;20402;-67
2022/12/11 05:55:13;;;;;;;38.53;17.60;;;;;;;-143.48;88.58;118439.88;5074742;28;20027;-67
2022/12/11 05:57:39;;;;;;;42.17;18.55;;;;;;;-143.48;89.07;118439.88;5074858;28;20020;-67
2022/12/11 06:00:05;;;;;;;42.22;18.35;;;;;;;-143.48;89.20;118439.88;5074936;28;20020;-67
2022/12/11 06:02:30;;;;;;;40.92;18.10;;;;;;;-143.48;89.39;118439.88;5074375;28;20036;-67
2022/12/11 06:04:55;;;;;;;42.83;18.15;;;;;;;-143.48;89.51;118439.88;5074523;28;20031;-68
2022/12/11 06:07:21;;;;;;;39.60;18.25;;;;;;;-143.48;89.57;118439.88;5074703;28;20052;-69
2022/12/11 06:09:46;;;;;;;40.53;18.02;;;;;;;-143.48;89.10;118439.88;5074486;28;20063;-68
2022/12/11 06:12:11;;;;;;;40.17;18.92;;;;;;;-143.48;89.64;118439.88;5074697;28;20017;-68
2022/12/11 06:14:37;;;;;;;43.55;19.67;;;;;;;-143.48;89.34;118439.88;5074461;28;20412;-69
2022/12/11 06:17:02;;;;;;;42.47;18.80;;;;;;;-143.48;89.21;118439.88;5074803;28;20027;-69
2022/12/11 06:19:27;;;;;;;43.35;18.77;;;;;;;-143.48;89.04;118439.88;5071092;28;20487;-65
2022/12/11 06:21:52;;;;;;;39.60;18.52;;;;;;;-143.48;89.12;118439.88;5069251;28;20028;-64
2022/12/11 06:24:18;;;;;;;41.65;19.02;;;;;;;-143.48;89.35;118439.88;5073606;28;20020;-65
2022/12/11 06:26:43;;;;;;;44.85;20.38;;;;;;;-143.48;89.50;118439.88;5074365;28;20051;-64
2022/12/11 06:29:08;;;;;;;41.85;19.20;;;;;;;-143.48;89.52;118439.88;5076356;28;20032;-68
2022/12/11 06:31:34;;;;;;;41.38;18.85;;;;;;;-143.48;89.54;118439.88;5058052;28;20024;-64
2022/12/11 06:33:59;;;;;;;36.97;17.67;;;;;;;-143.48;88.82;118439.88;5074123;28;20021;-63
2022/12/11 06:36:24;;;;;;;42.10;17.70;;;;;;;-143.48;89.23;118439.88;5073990;28;20127;-64
2022/12/11 06:38:50;;;;;;;41.88;17.73;;;;;;;-143.48;89.18;118439.88;5074100;28;20038;-65
2022/12/11 06:41:16;;;;;;;41.20;18.83;;;;;;;-143.48;89.45;118439.88;5074065;28;20424;-65
2022/12/11 06:43:42;;;;;;;44.15;18.98;;;;;;;-143.48;89.30;118439.88;5074084;28;20494;-65
2022/12/11 06:46:11;;;;;;;39.15;18.55;;;;;;;-143.48;89.10;118439.88;5074059;28;20029;-65
2022/12/11 06:48:36;;;;;;;48.15;19.50;;;;;;;-143.48;88.91;118439.88;5074096;28;20028;-65
2022/12/11 06:51:06;;;;;;;39.33;17.95;;;;;;;-143.48;88.11;118439.88;5055800;28;20020;-65
2022/12/11 06:53:31;;;;;;;40.15;17.08;;;;;;;-143.48;88.61;118439.88;5074096;28;20523;-65
2022/12/11 06:56:01;;;;;;;38.90;18.10;;;;;;;-143.48;89.64;118439.88;5074198;28;20104;-64
2022/12/11 06:58:26;;;;;;;40.58;17.52;;;;;;;-143.48;88.97;118439.88;5074006;28;20491;-63
2022/12/11 07:00:52;;;;;;;42.00;18.05;;;;;;;-143.48;88.64;118439.88;5074318;28;20055;-64
2022/12/11 07:03:17;;;;;;;41.22;17.88;;;;;;;-143.48;89.00;118439.88;5073802;28;20107;-64
2022/12/11 07:05:42;;;;;;;44.05;18.85;;;;;;;-143.48;88.18;118439.88;5074426;28;20031;-64
2022/12/11 07:08:07;;;;;;;43.13;18.35;;;;;;;-143.48;88.35;118439.88;5076685;28;20107;-65
2022/12/11 07:10:33;;;;;;;41.92;17.83;;;;;;;-143.48;88.19;118439.88;5058932;28;20020;-64
2022/12/11 07:12:58;;;;;;;44.45;18.65;;;;;;;-143.48;88.82;118439.88;5075015;28;20055;-65
2022/12/11 07:15:23;;;;;;;45.42;18.50;;;;;;;-143.48;89.00;118439.88;5075028;28;20040;-65
2022/12/11 07:17:49;;;;;;;37.15;17.77;;;;;;;-143.48;88.35;118439.88;5075261;28;20084;-69
2022/12/11 07:20:14;;;;;;;46.83;18.52;;;;;;;-143.48;88.30;118439.88;5084940;28;20046;-68
2022/12/11 07:22:39;;;;;;;43.35;18.77;;;;;;;-143.48;88.38;118439.88;5085669;28;20025;-65
2022/12/11 07:25:05;;;;;;;40.17;18.25;;;;;;;-143.48;88.20;118439.88;5085072;28;20111;-68
2022/12/11 07:27:30;;;;;;;38.72;17.35;;;;;;;-143.48;88.18;118439.88;5067449;28;20037;-65
2022/12/11 07:29:56;;;;;;;38.58;17.95;;;;;;;-143.48;88.18;118439.88;5084876;28;20025;-67
2022/12/11 07:32:21;;;;;;;41.30;18.40;;;;;;;-143.48;88.17;118439.88;5085753;28;20024;-65
2022/12/11 07:34:50;;;;;;;46.15;18.55;;;;;;;-143.48;87.75;118439.88;5082846;28;20377;-65
2022/12/11 07:37:15;;;;;;;42.45;18.75;;;;;;;-143.48;87.60;118439.88;5080516;28;20491;-62
2022/12/11 07:39:41;;;;;;;45.85;19.52;;;;;;;-143.48;87.65;118439.88;5080186;28;20086;-65
2022/12/11 07:42:06;;;;;;;44.75;19.08;;;;;;;-143.48;87.81;118439.88;5079383;28;20166;-66
2022/12/11 07:44:31;;;;;;;41.95;18.70;;;;;;;-143.48;87.65;118439.88;5079487;28;20032;-66
2022/12/11 07:46:57;;;;;;;46.35;20.63;;;;;;;-143.48;87.91;118439.88;5078676;28;20091;-63
2022/12/11 07:49:23;;;;;;;42.28;18.75;;;;;;;-143.48;87.60;118439.88;5077625;28;20029;-66
2022/12/11 07:51:49;;;;;;;48.17;19.75;;;;;;;-143.48;86.35;118439.88;5059035;28;20051;-64
2022/12/11 07:54:15;;;;;;;43.05;18.90;;;;;;;-143.48;87.08;118439.88;5076463;28;20048;-64
2022/12/11 07:56:45;;;;;;;39.70;18.75;;;;;;;-143.48;86.18;118439.88;5077003;28;20048;-63
2022/12/11 07:59:11;;;;;;;43.33;19.20;;;;;;;-143.48;86.49;118439.88;5076771;28;20051;-64
2022/12/11 08:01:37;;;;;;;46.70;19.20;;;;;;;-143.48;86.53;118439.88;5068263;28;20032;-65
2022/12/11 08:04:05;;;;;;;43.80;18.85;;;;;;;-143.48;86.76;118439.88;5076608;28;20411;-65
2022/12/11 08:06:33;;;;;;;48.45;20.75;;;;;;;-143.48;86.45;118439.88;5076817;28;20031;-64
2022/12/11 08:09:00;;;;;;;44.65;19.33;;;;;;;-143.48;86.19;118439.88;5076495;28;20104;-65
2022/12/11 08:11:26;;;;;;;43.97;18.80;;;;;;;-143.48;86.28;118439.88;5076356;28;20031;-64
2022/12/11 08:13:52;;;;;;;46.17;18.73;;;;;;;-143.48;86.30;118439.88;5076294;28;20029;-65
2022/12/11 08:16:17;;;;;;;41.63;19.08;;;;;;;-143.48;86.27;118439.88;5076346;28;20032;-65
2022/12/11 08:18:44;;;;;;;42.42;18.20;;;;;;;-143.48;86.26;118439.88;5067894;28;20036;-65
2022/12/11 08:21:13;;;;;;;44.28;18.52;;;;;;;-143.48;85.71;118439.88;5076275;28;20475;-64
2022/12/11 08:23:38;;;;;;;44.00;19.25;;;;;;;-143.48;85.71;118439.88;5076164;28;20033;-65
2022/12/11 08:26:06;;;;;;;43.63;17.30;;;;;;;-143.48;85.82;118439.88;5068141;28;20029;-64
2022/12/11 08:28:31;;;;;;;40.90;18.42;;;;;;;-143.48;85.63;118439.88;5067951;28;20386;-65
2022/12/11 08:30:57;;;;;;;41.03;17.42;;;;;;;-143.48;85.55;118439.88;5067717;28;20031;-64
2022/12/11 08:33:23;;;;;;;40.47;17.65;;;;;;;-143.48;84.93;118439.88;5056990;28;20464;-64
2022/12/11 08:35:48;;;;;;;38.97;17.35;;;;;;;-143.48;84.69;118439.88;5061693;28;20047;-65
2022/12/11 08:38:14;;;;;;;39.33;18.33;;;;;;;-143.48;84.19;118439.88;5076317;28;20042;-64
2022/12/11 08:40:39;;;;;;;37.70;17.20;;;;;;;-143.48;84.28;118439.88;5075943;28;20340;-64
2022/12/11 08:43:05;;;;;;;42.22;17.85;;;;;;;-143.48;85.00;118439.88;5075795;28;20464;-65
2022/12/11 08:45:30;;;;;;;42.22;17.88;;;;;;;-143.48;85.07;118439.88;5076369;28;20116;-65
2022/12/11 08:47:57;;;;;;;38.95;17.65;;;;;;;-143.48;85.96;118439.88;5075007;28;20024;-65
2022/12/11 08:50:22;;;;;;;39.28;17.45;;;;;;;-143.48;85.38;118439.88;5057933;28;20036;-66
2022/12/11 08:52:48;;;;;;;40.00;18.40;;;;;;;-143.48;84.93;118439.88;5075812;28;20024;-67
2022/12/11 08:55:13;;;;;;;43.08;18.15;;;;;;;-143.48;85.16;118439.88;5075848;28;20027;-64
2022/12/11 08:57:38;;;;;;;41.17;17.90;;;;;;;-143.48;84.97;118439.88;5075836;28;20486;-63
2022/12/11 09:00:07;;;;;;;42.55;17.23;;;;;;;-143.48;85.41;118439.88;5075466;28;20021;-65
2022/12/11 09:02:33;;;;;;;40.25;18.30;;;;;;;-143.48;85.17;118439.88;5057378;28;20027;-66
2022/12/11 09:04:58;;;;;;;40.95;17.33;;;;;;;-143.48;84.48;118439.88;5075370;28;20024;-65
2022/12/11 09:07:24;;;;;;;39.55;18.45;;;;;;;-143.48;85.05;118439.88;5075426;28;20020;-65
2022/12/11 09:09:49;;;;;;;42.28;18.52;;;;;;;-143.48;84.08;118439.88;5075404;28;20107;-64
2022/12/11 09:12:14;;;;;;;43.30;18.77;;;;;;;-143.48;84.14;118439.88;5075509;28;20146;-65
2022/12/11 09:14:40;;;;;;;39.20;17.88;;;;;;;-143.48;83.98;118439.88;5075151;28;20032;-65
2022/12/11 09:17:05;;;;;;;40.65;17.98;;;;;;;-143.48;83.79;118439.88;5074878;28;20060;-64
2022/12/11 09:19:30;;;;;;;40.45;17.90;;;;;;;-143.48;82.54;118439.88;5056907;28;20113;-64
2022/12/11 09:21:56;;;;;;;36.80;17.15;;;;;;;-143.48;82.55;118439.88;5074949;28;20130;-65
2022/12/11 09:24:21;;;;;;;35.50;18.33;;;;;;;-143.48;82.35;118439.88;5074705;28;20103;-66
2022/12/11 09:26:46;;;;;;;38.42;18.50;;;;;;;-143.48;82.00;118439.88;5074355;28;20039;-65
2022/12/11 09:29:12;;;;;;;35.58;17.60;;;;;;;-143.48;82.02;118439.88;5073441;28;20542;-65
2022/12/11 09:31:37;;;;;;;34.13;16.73;;;;;;;-143.48;81.81;118439.88;5074803;28;20039;-64
2022/12/11 09:34:07;;;;;;;35.17;17.17;;;;;;;-143.48;80.91;118439.88;5074849;28;20016;-64
2022/12/11 09:36:32;;;;;;;42.17;18.30;;;;;;;-143.48;80.69;118439.88;5074561;28;20055;-64
2022/12/11 09:39:03;;;;;;;36.33;17.70;;;;;;;-143.48;80.87;118439.88;5074630;28;20021;-65
2022/12/11 09:41:36;;;;;;;40.63;18.27;;;;;;;-143.48;81.52;118439.88;5074818;28;20545;-65
2022/12/11 09:44:12;;;;;;;40.75;20.00;;;;;;;-143.48;81.34;118439.88;5074566;28;20103;-64
2022/12/11 09:46:39;;;;;;;36.75;17.38;;;;;;;-143.48;81.11;118439.88;5074585;28;20032;-64
2022/12/11 09:49:17;;;;;;;35.28;17.20;;;;;;;-143.48;80.70;118439.88;5074506;28;20388;-65
2022/12/11 09:51:50;;;;;;;39.65;17.92;;;;;;;-143.48;80.88;118439.88;5074349;28;20025;-65
2022/12/11 09:54:15;;;;;;;34.45;17.73;;;;;;;-143.48;81.29;118439.88;5075180;28;20024;-65
2022/12/11 09:56:53;;;;;;;41.80;19.45;;;;;;;-143.48;82.68;118439.88;5074130;28;20082;-64
2022/12/11 09:59:30;;;;;;;41.28;20.52;;;;;;;-143.48;81.32;118439.88;5074293;28;20430;-65
2022/12/11 10:02:13;;;;;;;39.67;19.90;;;;;;;-143.48;81.18;118439.88;5073963;28;20027;-64
2022/12/11 10:04:50;;;;;;;43.97;20.02;;;;;;;-143.48;81.42;118439.88;5074036;28;20468;-65
2022/12/11 10:07:36;;;;;;;38.58;19.63;;;;;;;-143.48;81.92;118439.88;5073978;28;20029;-65
2022/12/11 10:10:25;;;;;;;42.90;19.70;;;;;;;-143.48;81.71;118439.88;5073951;28;20135;-64
2022/12/11 10:13:11;;;;;;;45.25;19.33;;;;;;;-143.48;81.81;118439.88;5074074;28;20059;-64
2022/12/11 10:15:46;;;;;;;39.92;19.55;;;;;;;-143.48;82.48;118439.88;5074122;28;20519;-64
2022/12/11 10:18:16;;;;;;;38.17;18.70;;;;;;;-143.48;83.67;118439.88;5073857;28;20077;-64
2022/12/11 10:20:44;;;;;;;39.10;18.58;;;;;;;-143.48;82.96;118439.88;5073702;28;20031;-66
2022/12/11 10:23:18;;;;;;;40.90;20.00;;;;;;;-143.48;83.46;118439.88;5055832;28;20024;-65
2022/12/11 10:25:57;;;;;;;42.35;19.75;;;;;;;-143.48;83.04;118439.88;5074284;28;20025;-64
2022/12/11 10:28:22;;;;;;;38.40;19.58;;;;;;;-143.48;82.99;118439.88;5073802;28;20094;-65
2022/12/11 10:31:17;;;;;;;40.78;20.05;;;;;;;-143.48;82.80;118439.88;5074064;28;20040;-65
2022/12/11 10:34:10;;;;;;;41.10;19.85;;;;;;;-143.48;82.86;118439.88;5073688;28;20089;-66
2022/12/11 10:36:41;;;;;;;44.78;20.30;;;;;;;-143.48;83.43;118439.88;5073460;28;20049;-65
2022/12/11 10:39:19;;;;;;;37.25;18.88;;;;;;;-143.48;83.19;118439.88;5073667;28;20020;-65
2022/12/11 10:41:46;;;;;;;41.25;19.30;;;;;;;-143.48;82.37;118439.88;5073776;28;20623;-66
2022/12/11 10:44:20;;;;;;;39.63;17.50;;;;;;;-143.48;81.89;118439.88;5055498;28;20020;-65
2022/12/11 10:46:47;;;;;;;39.47;19.23;;;;;;;-143.48;82.86;118439.88;5073612;28;20021;-65
2022/12/11 10:49:28;;;;;;;41.00;20.35;;;;;;;-143.48;83.71;118439.88;5073367;28;20023;-65
2022/12/11 10:51:55;;;;;;;43.13;18.70;;;;;;;-143.48;82.72;118439.88;5073472;28;20027;-66
2022/12/11 10:54:33;;;;;;;39.17;19.17;;;;;;;-143.48;83.07;118439.88;5073793;28;20029;-65
2022/12/11 10:57:00;;;;;;;37.22;19.25;;;;;;;-143.48;81.49;118439.88;5055305;28;20581;-65
2022/12/11 10:59:32;;;;;;;39.47;19.30;;;;;;;-143.48;81.73;118439.88;5073415;28;20032;-66
2022/12/11 11:01:57;;;;;;;36.63;19.15;;;;;;;-143.48;81.92;118439.88;5074573;28;20032;-65
2022/12/11 11:04:31;;;;;;;38.03;18.85;;;;;;;-143.48;82.06;118439.88;5074498;28;20017;-64
2022/12/11 11:07:24;;;;;;;40.65;19.10;;;;;;;-143.48;82.26;118439.88;5075252;28;20017;-64